sensor_id;sensor_type;location;lat;lon;timestamp;temperature;humidity
10419;DHT22;5256;48.728;9.140;2023-09-19T00:02:18;15.50;99.90
10419;DHT22;5256;48.728;9.140;2023-09-19T00:04:44;15.50;99.90
10419;DHT22;5256;48.728;9.140;2023-09-19T00:07:10;15.40;99.90
10419;DHT22;5256;48.728;9.140;2023-09-19T00:09:35;15.40;99.90
10419;DHT22;5256;48.728;9.140;2023-09-19T00:12:06;15.40;99.90
10419;DHT22;5256;48.728;9.140;2023-09-19T00:14:32;15.40;99.90
10419;DHT22;5256;48.728;9.140;2023-09-19T00:17:01;15.40;99.90
10419;DHT22;5256;48.728;9.140;2023-09-19T00:19:32;15.40;99.90
10419;DHT22;5256;48.728;9.140;2023-09-19T00:21:58;15.40;99.90
10419;DHT22;5256;48.728;9.140;2023-09-19T00:24:24;15.30;99.90
10419;DHT22;5256;48.728;9.140;2023-09-19T00:26:49;15.30;99.90
10419;DHT22;5256;48.728;9.140;2023-09-19T00:29:15;15.30;99.90
10419;DHT22;5256;48.728;9.140;2023-09-19T00:31:44;15.20;99.90
10419;DHT22;5256;48.728;9.140;2023-09-19T00:34:10;15.20;99.90
10419;DHT22;5256;48.728;9.140;2023-09-19T00:36:39;15.20;99.90
10419;DHT22;5256;48.728;9.140;2023-09-19T00:39:05;15.10;99.90
10419;DHT22;5256;48.728;9.140;2023-09-19T00:41:34;15.10;99.90
10419;DHT22;5256;48.728;9.140;2023-09-19T00:44:03;15.10;99.90
10419;DHT22;5256;48.728;9.140;2023-09-19T00:46:30;15.10;99.90
10419;DHT22;5256;48.728;9.140;2023-09-19T00:48:57;15.10;99.90
10419;DHT22;5256;48.728;9.140;2023-09-19T00:51:24;15.00;99.90
10419;DHT22;5256;48.728;9.140;2023-09-19T00:53:51;15.00;99.90
10419;DHT22;5256;48.728;9.140;2023-09-19T00:56:18;14.90;99.90
10419;DHT22;5256;48.728;9.140;2023-09-19T00:58:45;14.90;99.90
10419;DHT22;5256;48.728;9.140;2023-09-19T01:01:12;14.90;99.90
10419;DHT22;5256;48.728;9.140;2023-09-19T01:03:40;14.90;99.90
10419;DHT22;5256;48.728;9.140;2023-09-19T01:06:06;14.90;99.90
10419;DHT22;5256;48.728;9.140;2023-09-19T01:08:33;14.90;99.90
10419;DHT22;5256;48.728;9.140;2023-09-19T01:13:53;15.10;99.90
10419;DHT22;5256;48.728;9.140;2023-09-19T01:16:50;15.20;99.90
10419;DHT22;5256;48.728;9.140;2023-09-19T01:22:07;15.30;99.90
10419;DHT22;5256;48.728;9.140;2023-09-19T01:29:48;15.30;99.90
10419;DHT22;5256;48.728;9.140;2023-09-19T01:32:17;15.30;99.90
10419;DHT22;5256;48.728;9.140;2023-09-19T01:34:54;15.30;99.90
10419;DHT22;5256;48.728;9.140;2023-09-19T01:37:22;15.30;99.90
10419;DHT22;5256;48.728;9.140;2023-09-19T01:40:12;15.30;99.90
10419;DHT22;5256;48.728;9.140;2023-09-19T01:43:09;15.40;99.90
10419;DHT22;5256;48.728;9.140;2023-09-19T01:45:47;15.30;99.90
10419;DHT22;5256;48.728;9.140;2023-09-19T01:50:47;15.40;99.90
10419;DHT22;5256;48.728;9.140;2023-09-19T01:53:27;15.50;99.90
10419;DHT22;5256;48.728;9.140;2023-09-19T01:55:57;15.50;99.90
10419;DHT22;5256;48.728;9.140;2023-09-19T01:58:37;15.50;99.90
10419;DHT22;5256;48.728;9.140;2023-09-19T02:01:05;15.50;99.90
10419;DHT22;5256;48.728;9.140;2023-09-19T02:03:34;15.50;99.90
10419;DHT22;5256;48.728;9.140;2023-09-19T02:06:00;15.50;99.90
10419;DHT22;5256;48.728;9.140;2023-09-19T02:08:26;15.50;99.90
10419;DHT22;5256;48.728;9.140;2023-09-19T02:10:52;15.40;99.90
10419;DHT22;5256;48.728;9.140;2023-09-19T02:13:22;15.40;99.90
10419;DHT22;5256;48.728;9.140;2023-09-19T02:15:53;15.40;99.90
10419;DHT22;5256;48.728;9.140;2023-09-19T02:18:19;15.30;99.90
10419;DHT22;5256;48.728;9.140;2023-09-19T02:20:45;15.30;99.90
10419;DHT22;5256;48.728;9.140;2023-09-19T02:23:12;15.30;99.90
10419;DHT22;5256;48.728;9.140;2023-09-19T02:25:38;15.30;99.90
10419;DHT22;5256;48.728;9.140;2023-09-19T02:28:05;15.20;99.90
10419;DHT22;5256;48.728;9.140;2023-09-19T02:30:31;15.20;99.90
10419;DHT22;5256;48.728;9.140;2023-09-19T02:32:58;15.20;99.90
10419;DHT22;5256;48.728;9.140;2023-09-19T02:35:26;15.10;99.90
10419;DHT22;5256;48.728;9.140;2023-09-19T02:37:53;15.10;99.90
10419;DHT22;5256;48.728;9.140;2023-09-19T02:40:19;15.00;99.90
10419;DHT22;5256;48.728;9.140;2023-09-19T02:42:46;14.90;99.90
10419;DHT22;5256;48.728;9.140;2023-09-19T02:45:14;14.90;99.90
10419;DHT22;5256;48.728;9.140;2023-09-19T02:47:43;14.70;99.90
10419;DHT22;5256;48.728;9.140;2023-09-19T02:50:09;14.60;99.90
10419;DHT22;5256;48.728;9.140;2023-09-19T02:52:36;14.50;99.90
10419;DHT22;5256;48.728;9.140;2023-09-19T02:55:02;14.50;99.90
10419;DHT22;5256;48.728;9.140;2023-09-19T02:57:29;14.60;99.90
10419;DHT22;5256;48.728;9.140;2023-09-19T02:59:58;14.50;99.90
10419;DHT22;5256;48.728;9.140;2023-09-19T03:02:25;14.40;99.90
10419;DHT22;5256;48.728;9.140;2023-09-19T03:04:53;14.50;99.90
10419;DHT22;5256;48.728;9.140;2023-09-19T03:07:19;14.60;99.90
10419;DHT22;5256;48.728;9.140;2023-09-19T03:09:45;14.60;99.90
10419;DHT22;5256;48.728;9.140;2023-09-19T03:12:11;14.70;99.90
10419;DHT22;5256;48.728;9.140;2023-09-19T03:14:36;14.70;99.90
10419;DHT22;5256;48.728;9.140;2023-09-19T03:17:02;14.80;99.90
10419;DHT22;5256;48.728;9.140;2023-09-19T03:19:31;14.80;99.90
10419;DHT22;5256;48.728;9.140;2023-09-19T03:21:59;14.80;99.90
10419;DHT22;5256;48.728;9.140;2023-09-19T03:24:24;14.80;99.90
10419;DHT22;5256;48.728;9.140;2023-09-19T03:26:50;14.80;99.90
10419;DHT22;5256;48.728;9.140;2023-09-19T03:29:16;14.80;99.90
10419;DHT22;5256;48.728;9.140;2023-09-19T03:31:42;14.80;99.90
10419;DHT22;5256;48.728;9.140;2023-09-19T03:34:08;14.80;99.90
10419;DHT22;5256;48.728;9.140;2023-09-19T03:36:34;14.80;99.90
10419;DHT22;5256;48.728;9.140;2023-09-19T03:39:01;14.80;99.90
10419;DHT22;5256;48.728;9.140;2023-09-19T03:41:26;14.90;99.90
10419;DHT22;5256;48.728;9.140;2023-09-19T03:43:52;14.90;99.90
10419;DHT22;5256;48.728;9.140;2023-09-19T03:46:18;14.90;99.90
10419;DHT22;5256;48.728;9.140;2023-09-19T03:48:44;15.00;99.90
10419;DHT22;5256;48.728;9.140;2023-09-19T03:51:09;15.10;99.90
10419;DHT22;5256;48.728;9.140;2023-09-19T03:53:36;15.10;99.90
10419;DHT22;5256;48.728;9.140;2023-09-19T03:56:01;15.10;99.90
10419;DHT22;5256;48.728;9.140;2023-09-19T03:58:28;15.10;99.90
10419;DHT22;5256;48.728;9.140;2023-09-19T04:00:57;15.20;99.90
10419;DHT22;5256;48.728;9.140;2023-09-19T04:03:24;15.20;99.90
10419;DHT22;5256;48.728;9.140;2023-09-19T04:05:50;15.20;99.90
10419;DHT22;5256;48.728;9.140;2023-09-19T04:08:15;15.20;99.90
10419;DHT22;5256;48.728;9.140;2023-09-19T04:10:44;15.10;99.90
10419;DHT22;5256;48.728;9.140;2023-09-19T04:13:10;15.10;99.90
10419;DHT22;5256;48.728;9.140;2023-09-19T04:15:36;15.00;99.90
10419;DHT22;5256;48.728;9.140;2023-09-19T04:18:03;14.90;99.90
10419;DHT22;5256;48.728;9.140;2023-09-19T04:20:29;14.80;99.90
10419;DHT22;5256;48.728;9.140;2023-09-19T04:22:54;14.70;99.90
10419;DHT22;5256;48.728;9.140;2023-09-19T04:25:20;14.70;99.90
10419;DHT22;5256;48.728;9.140;2023-09-19T04:27:46;14.70;99.90
10419;DHT22;5256;48.728;9.140;2023-09-19T04:30:12;14.70;99.90
10419;DHT22;5256;48.728;9.140;2023-09-19T04:32:38;14.70;99.90
10419;DHT22;5256;48.728;9.140;2023-09-19T04:35:08;14.70;99.90
10419;DHT22;5256;48.728;9.140;2023-09-19T04:37:39;14.70;99.90
10419;DHT22;5256;48.728;9.140;2023-09-19T04:40:09;14.70;99.90
10419;DHT22;5256;48.728;9.140;2023-09-19T04:42:38;14.80;99.90
10419;DHT22;5256;48.728;9.140;2023-09-19T04:45:04;14.80;99.90
10419;DHT22;5256;48.728;9.140;2023-09-19T04:47:30;14.80;99.90
10419;DHT22;5256;48.728;9.140;2023-09-19T04:49:56;14.80;99.90
10419;DHT22;5256;48.728;9.140;2023-09-19T04:52:24;14.90;99.90
10419;DHT22;5256;48.728;9.140;2023-09-19T04:54:49;15.00;99.90
10419;DHT22;5256;48.728;9.140;2023-09-19T04:57:15;15.00;99.90
10419;DHT22;5256;48.728;9.140;2023-09-19T04:59:41;15.00;99.90
10419;DHT22;5256;48.728;9.140;2023-09-19T05:02:07;15.10;99.90
10419;DHT22;5256;48.728;9.140;2023-09-19T05:04:35;15.00;99.90
10419;DHT22;5256;48.728;9.140;2023-09-19T05:07:01;15.10;99.90
10419;DHT22;5256;48.728;9.140;2023-09-19T05:09:28;15.10;99.90
10419;DHT22;5256;48.728;9.140;2023-09-19T05:11:54;15.10;99.90
10419;DHT22;5256;48.728;9.140;2023-09-19T05:14:21;15.00;99.90
10419;DHT22;5256;48.728;9.140;2023-09-19T05:16:47;15.00;99.90
10419;DHT22;5256;48.728;9.140;2023-09-19T05:19:13;15.00;99.90
10419;DHT22;5256;48.728;9.140;2023-09-19T05:21:39;14.90;99.90
10419;DHT22;5256;48.728;9.140;2023-09-19T05:24:07;14.90;99.90
10419;DHT22;5256;48.728;9.140;2023-09-19T05:26:33;14.80;99.90
10419;DHT22;5256;48.728;9.140;2023-09-19T05:28:58;14.80;99.90
10419;DHT22;5256;48.728;9.140;2023-09-19T05:31:24;14.80;99.90
10419;DHT22;5256;48.728;9.140;2023-09-19T05:33:50;14.80;99.90
10419;DHT22;5256;48.728;9.140;2023-09-19T05:36:16;14.80;99.90
10419;DHT22;5256;48.728;9.140;2023-09-19T05:38:42;14.80;99.90
10419;DHT22;5256;48.728;9.140;2023-09-19T05:41:09;14.70;99.90
10419;DHT22;5256;48.728;9.140;2023-09-19T05:43:39;14.70;99.90
10419;DHT22;5256;48.728;9.140;2023-09-19T05:46:06;14.80;99.90
10419;DHT22;5256;48.728;9.140;2023-09-19T05:48:33;14.80;99.90
10419;DHT22;5256;48.728;9.140;2023-09-19T05:50:59;14.80;99.90
10419;DHT22;5256;48.728;9.140;2023-09-19T05:53:26;14.90;99.90
10419;DHT22;5256;48.728;9.140;2023-09-19T05:55:51;15.00;99.90
10419;DHT22;5256;48.728;9.140;2023-09-19T05:58:19;14.90;99.90
10419;DHT22;5256;48.728;9.140;2023-09-19T06:00:45;14.90;99.90
10419;DHT22;5256;48.728;9.140;2023-09-19T06:03:14;15.00;99.90
10419;DHT22;5256;48.728;9.140;2023-09-19T06:05:40;15.00;99.90
10419;DHT22;5256;48.728;9.140;2023-09-19T06:08:07;14.90;99.90
10419;DHT22;5256;48.728;9.140;2023-09-19T06:10:34;14.80;99.90
10419;DHT22;5256;48.728;9.140;2023-09-19T06:13:03;14.70;99.90
10419;DHT22;5256;48.728;9.140;2023-09-19T06:15:35;14.60;99.90
10419;DHT22;5256;48.728;9.140;2023-09-19T06:18:01;14.60;99.90
10419;DHT22;5256;48.728;9.140;2023-09-19T06:20:30;14.50;99.90
10419;DHT22;5256;48.728;9.140;2023-09-19T06:22:56;14.50;99.90
10419;DHT22;5256;48.728;9.140;2023-09-19T06:25:22;14.40;99.90
10419;DHT22;5256;48.728;9.140;2023-09-19T06:27:51;14.40;99.90
10419;DHT22;5256;48.728;9.140;2023-09-19T06:30:19;14.30;99.90
10419;DHT22;5256;48.728;9.140;2023-09-19T06:32:45;14.20;99.90
10419;DHT22;5256;48.728;9.140;2023-09-19T06:35:12;14.30;99.90
10419;DHT22;5256;48.728;9.140;2023-09-19T06:37:38;14.30;99.90
10419;DHT22;5256;48.728;9.140;2023-09-19T06:40:14;14.40;99.90
10419;DHT22;5256;48.728;9.140;2023-09-19T06:42:44;14.40;99.90
10419;DHT22;5256;48.728;9.140;2023-09-19T06:45:14;14.40;99.90
10419;DHT22;5256;48.728;9.140;2023-09-19T06:47:44;14.50;99.90
10419;DHT22;5256;48.728;9.140;2023-09-19T06:50:11;14.60;99.90
10419;DHT22;5256;48.728;9.140;2023-09-19T06:52:40;14.60;99.90
10419;DHT22;5256;48.728;9.140;2023-09-19T06:55:07;14.70;99.90
10419;DHT22;5256;48.728;9.140;2023-09-19T06:57:32;14.80;99.90
10419;DHT22;5256;48.728;9.140;2023-09-19T06:59:58;14.90;99.90
10419;DHT22;5256;48.728;9.140;2023-09-19T07:02:23;15.00;99.90
10419;DHT22;5256;48.728;9.140;2023-09-19T07:04:49;15.20;99.90
10419;DHT22;5256;48.728;9.140;2023-09-19T07:07:15;15.40;99.90
10419;DHT22;5256;48.728;9.140;2023-09-19T07:09:41;15.60;99.90
10419;DHT22;5256;48.728;9.140;2023-09-19T07:12:08;15.80;99.90
10419;DHT22;5256;48.728;9.140;2023-09-19T07:14:33;15.70;99.90
10419;DHT22;5256;48.728;9.140;2023-09-19T07:16:59;15.70;99.90
10419;DHT22;5256;48.728;9.140;2023-09-19T07:19:25;15.80;99.90
10419;DHT22;5256;48.728;9.140;2023-09-19T07:21:53;15.80;99.90
10419;DHT22;5256;48.728;9.140;2023-09-19T07:24:19;15.80;99.90
10419;DHT22;5256;48.728;9.140;2023-09-19T07:26:45;15.90;99.90
10419;DHT22;5256;48.728;9.140;2023-09-19T07:29:11;15.90;99.90
10419;DHT22;5256;48.728;9.140;2023-09-19T07:31:36;16.00;99.90
10419;DHT22;5256;48.728;9.140;2023-09-19T07:34:02;16.00;99.90
10419;DHT22;5256;48.728;9.140;2023-09-19T07:36:29;16.20;99.90
10419;DHT22;5256;48.728;9.140;2023-09-19T07:38:55;16.40;99.90
10419;DHT22;5256;48.728;9.140;2023-09-19T07:41:23;16.60;99.90
10419;DHT22;5256;48.728;9.140;2023-09-19T07:43:49;16.80;99.90
10419;DHT22;5256;48.728;9.140;2023-09-19T07:46:14;16.90;99.90
10419;DHT22;5256;48.728;9.140;2023-09-19T07:48:40;17.10;99.90
10419;DHT22;5256;48.728;9.140;2023-09-19T07:51:07;17.40;99.90
10419;DHT22;5256;48.728;9.140;2023-09-19T07:53:34;17.50;99.90
10419;DHT22;5256;48.728;9.140;2023-09-19T07:56:08;17.70;99.90
10419;DHT22;5256;48.728;9.140;2023-09-19T07:58:35;17.70;99.90
10419;DHT22;5256;48.728;9.140;2023-09-19T08:01:08;17.80;99.90
10419;DHT22;5256;48.728;9.140;2023-09-19T08:03:35;17.80;99.90
10419;DHT22;5256;48.728;9.140;2023-09-19T08:06:05;17.90;99.90
10419;DHT22;5256;48.728;9.140;2023-09-19T08:08:32;18.10;99.90
10419;DHT22;5256;48.728;9.140;2023-09-19T08:10:58;18.40;99.90
10419;DHT22;5256;48.728;9.140;2023-09-19T08:13:24;18.60;99.90
10419;DHT22;5256;48.728;9.140;2023-09-19T08:15:50;18.90;99.90
10419;DHT22;5256;48.728;9.140;2023-09-19T08:18:19;19.20;99.90
10419;DHT22;5256;48.728;9.140;2023-09-19T08:20:51;19.20;99.90
10419;DHT22;5256;48.728;9.140;2023-09-19T08:23:16;19.40;99.90
10419;DHT22;5256;48.728;9.140;2023-09-19T08:25:46;19.50;99.90
10419;DHT22;5256;48.728;9.140;2023-09-19T08:28:12;19.50;99.90
10419;DHT22;5256;48.728;9.140;2023-09-19T08:30:39;19.70;99.90
10419;DHT22;5256;48.728;9.140;2023-09-19T08:33:06;19.70;99.90
10419;DHT22;5256;48.728;9.140;2023-09-19T08:35:33;19.90;99.90
10419;DHT22;5256;48.728;9.140;2023-09-19T08:37:58;19.60;99.90
10419;DHT22;5256;48.728;9.140;2023-09-19T08:40:30;19.40;99.90
10419;DHT22;5256;48.728;9.140;2023-09-19T08:42:59;19.40;99.90
10419;DHT22;5256;48.728;9.140;2023-09-19T08:45:26;19.50;99.90
10419;DHT22;5256;48.728;9.140;2023-09-19T08:53:54;19.90;99.90
10419;DHT22;5256;48.728;9.140;2023-09-19T08:56:25;20.00;99.90
10419;DHT22;5256;48.728;9.140;2023-09-19T08:58:57;20.20;99.90
10419;DHT22;5256;48.728;9.140;2023-09-19T09:01:27;20.30;99.90
10419;DHT22;5256;48.728;9.140;2023-09-19T09:03:54;20.70;99.90
10419;DHT22;5256;48.728;9.140;2023-09-19T09:06:24;20.80;99.90
10419;DHT22;5256;48.728;9.140;2023-09-19T09:08:50;21.10;99.90
10419;DHT22;5256;48.728;9.140;2023-09-19T09:11:17;21.40;99.90
10419;DHT22;5256;48.728;9.140;2023-09-19T09:13:44;21.20;99.90
10419;DHT22;5256;48.728;9.140;2023-09-19T09:16:11;20.90;99.90
10419;DHT22;5256;48.728;9.140;2023-09-19T09:18:38;20.50;99.90
10419;DHT22;5256;48.728;9.140;2023-09-19T09:21:04;20.30;99.90
10419;DHT22;5256;48.728;9.140;2023-09-19T09:23:30;20.20;99.90
10419;DHT22;5256;48.728;9.140;2023-09-19T09:25:58;20.20;99.90
10419;DHT22;5256;48.728;9.140;2023-09-19T09:28:33;20.10;99.90
10419;DHT22;5256;48.728;9.140;2023-09-19T09:31:01;20.10;99.90
10419;DHT22;5256;48.728;9.140;2023-09-19T09:33:34;20.10;99.90
10419;DHT22;5256;48.728;9.140;2023-09-19T09:36:01;19.90;99.90
10419;DHT22;5256;48.728;9.140;2023-09-19T09:38:30;19.80;99.90
10419;DHT22;5256;48.728;9.140;2023-09-19T09:40:59;19.60;99.90
10419;DHT22;5256;48.728;9.140;2023-09-19T09:43:39;19.40;99.90
10419;DHT22;5256;48.728;9.140;2023-09-19T09:46:15;18.90;99.90
10419;DHT22;5256;48.728;9.140;2023-09-19T09:51:43;18.90;99.90
10419;DHT22;5256;48.728;9.140;2023-09-19T09:54:18;19.20;99.90
10419;DHT22;5256;48.728;9.140;2023-09-19T09:56:55;19.40;99.90
10419;DHT22;5256;48.728;9.140;2023-09-19T09:59:44;19.50;99.90
10419;DHT22;5256;48.728;9.140;2023-09-19T10:02:35;19.40;99.90
10419;DHT22;5256;48.728;9.140;2023-09-19T10:05:20;19.30;99.90
10419;DHT22;5256;48.728;9.140;2023-09-19T10:07:52;19.20;99.90
10419;DHT22;5256;48.728;9.140;2023-09-19T10:10:44;19.30;99.90
10419;DHT22;5256;48.728;9.140;2023-09-19T10:13:20;19.40;99.90
10419;DHT22;5256;48.728;9.140;2023-09-19T10:15:50;19.50;99.90
10419;DHT22;5256;48.728;9.140;2023-09-19T10:18:23;19.50;99.90
10419;DHT22;5256;48.728;9.140;2023-09-19T10:20:50;19.70;99.90
10419;DHT22;5256;48.728;9.140;2023-09-19T10:23:21;19.90;99.90
10419;DHT22;5256;48.728;9.140;2023-09-19T10:25:52;19.90;99.90
10419;DHT22;5256;48.728;9.140;2023-09-19T10:28:19;19.80;99.90
10419;DHT22;5256;48.728;9.140;2023-09-19T10:30:49;19.80;99.90
10419;DHT22;5256;48.728;9.140;2023-09-19T10:33:20;19.90;99.90
10419;DHT22;5256;48.728;9.140;2023-09-19T10:35:50;20.00;99.90
10419;DHT22;5256;48.728;9.140;2023-09-19T10:38:24;20.10;99.90
10419;DHT22;5256;48.728;9.140;2023-09-19T10:40:55;20.30;99.90
10419;DHT22;5256;48.728;9.140;2023-09-19T10:43:26;20.40;99.90
10419;DHT22;5256;48.728;9.140;2023-09-19T10:45:51;20.30;99.90
10419;DHT22;5256;48.728;9.140;2023-09-19T10:48:19;20.10;99.90
10419;DHT22;5256;48.728;9.140;2023-09-19T10:51:03;20.00;99.90
10419;DHT22;5256;48.728;9.140;2023-09-19T10:53:43;19.80;99.90
10419;DHT22;5256;48.728;9.140;2023-09-19T10:56:17;19.70;99.90
10419;DHT22;5256;48.728;9.140;2023-09-19T10:58:44;19.70;99.90
10419;DHT22;5256;48.728;9.140;2023-09-19T11:01:12;19.80;99.90
10419;DHT22;5256;48.728;9.140;2023-09-19T11:03:38;19.90;99.90
10419;DHT22;5256;48.728;9.140;2023-09-19T11:06:18;20.10;99.90
10419;DHT22;5256;48.728;9.140;2023-09-19T11:09:02;20.20;99.90
10419;DHT22;5256;48.728;9.140;2023-09-19T11:11:56;20.30;99.90
10419;DHT22;5256;48.728;9.140;2023-09-19T11:30:44;20.60;99.90
10419;DHT22;5256;48.728;9.140;2023-09-19T11:36:05;20.40;99.90
10419;DHT22;5256;48.728;9.140;2023-09-19T11:46:51;21.00;99.90
10419;DHT22;5256;48.728;9.140;2023-09-19T11:49:28;21.00;99.90
10419;DHT22;5256;48.728;9.140;2023-09-19T11:51:55;21.00;99.90
10419;DHT22;5256;48.728;9.140;2023-09-19T11:54:21;20.90;99.90
10419;DHT22;5256;48.728;9.140;2023-09-19T11:56:52;20.70;99.90
10419;DHT22;5256;48.728;9.140;2023-09-19T11:59:23;20.80;99.90
10419;DHT22;5256;48.728;9.140;2023-09-19T12:01:54;21.00;99.90
10419;DHT22;5256;48.728;9.140;2023-09-19T12:07:07;20.70;99.90
10419;DHT22;5256;48.728;9.140;2023-09-19T12:10:04;20.70;99.90
10419;DHT22;5256;48.728;9.140;2023-09-19T12:12:31;20.30;99.90
10419;DHT22;5256;48.728;9.140;2023-09-19T12:14:58;20.30;99.90
10419;DHT22;5256;48.728;9.140;2023-09-19T12:17:37;20.50;99.90
10419;DHT22;5256;48.728;9.140;2023-09-19T12:20:05;20.50;99.90
10419;DHT22;5256;48.728;9.140;2023-09-19T12:22:45;20.50;99.90
10419;DHT22;5256;48.728;9.140;2023-09-19T12:25:12;20.40;99.90
10419;DHT22;5256;48.728;9.140;2023-09-19T12:27:49;20.50;99.90
10419;DHT22;5256;48.728;9.140;2023-09-19T12:30:27;20.40;99.90
10419;DHT22;5256;48.728;9.140;2023-09-19T12:32:53;20.50;99.90
10419;DHT22;5256;48.728;9.140;2023-09-19T12:35:33;20.80;99.90
10419;DHT22;5256;48.728;9.140;2023-09-19T12:38:02;21.00;99.90
10419;DHT22;5256;48.728;9.140;2023-09-19T12:40:29;21.00;99.90
10419;DHT22;5256;48.728;9.140;2023-09-19T12:42:59;21.20;99.90
10419;DHT22;5256;48.728;9.140;2023-09-19T12:45:25;21.20;99.90
10419;DHT22;5256;48.728;9.140;2023-09-19T12:48:23;21.20;99.90
10419;DHT22;5256;48.728;9.140;2023-09-19T12:51:05;21.30;99.90
10419;DHT22;5256;48.728;9.140;2023-09-19T12:53:36;21.20;99.90
10419;DHT22;5256;48.728;9.140;2023-09-19T12:56:10;21.20;99.90
10419;DHT22;5256;48.728;9.140;2023-09-19T12:58:57;21.10;99.90
10419;DHT22;5256;48.728;9.140;2023-09-19T13:01:28;21.10;99.90
10419;DHT22;5256;48.728;9.140;2023-09-19T13:04:20;21.20;99.90
10419;DHT22;5256;48.728;9.140;2023-09-19T13:06:52;21.30;99.90
10419;DHT22;5256;48.728;9.140;2023-09-19T13:09:19;21.10;99.90
10419;DHT22;5256;48.728;9.140;2023-09-19T13:11:45;21.10;99.90
10419;DHT22;5256;48.728;9.140;2023-09-19T13:17:08;21.30;99.90
10419;DHT22;5256;48.728;9.140;2023-09-19T13:19:48;21.30;99.90
10419;DHT22;5256;48.728;9.140;2023-09-19T13:22:43;21.40;99.90
10419;DHT22;5256;48.728;9.140;2023-09-19T13:25:16;21.40;99.90
10419;DHT22;5256;48.728;9.140;2023-09-19T13:27:49;21.40;99.90
10419;DHT22;5256;48.728;9.140;2023-09-19T13:30:20;21.40;99.90
10419;DHT22;5256;48.728;9.140;2023-09-19T13:32:46;21.30;99.90
10419;DHT22;5256;48.728;9.140;2023-09-19T13:35:15;21.30;99.90
10419;DHT22;5256;48.728;9.140;2023-09-19T13:37:42;21.40;99.90
10419;DHT22;5256;48.728;9.140;2023-09-19T13:40:12;21.40;99.90
10419;DHT22;5256;48.728;9.140;2023-09-19T13:42:38;21.50;99.90
10419;DHT22;5256;48.728;9.140;2023-09-19T13:45:04;21.60;99.90
10419;DHT22;5256;48.728;9.140;2023-09-19T13:47:34;21.70;99.90
10419;DHT22;5256;48.728;9.140;2023-09-19T13:50:02;21.70;99.90
10419;DHT22;5256;48.728;9.140;2023-09-19T13:52:29;21.80;99.90
10419;DHT22;5256;48.728;9.140;2023-09-19T13:54:56;21.90;99.90
10419;DHT22;5256;48.728;9.140;2023-09-19T13:57:22;21.90;99.90
10419;DHT22;5256;48.728;9.140;2023-09-19T13:59:48;22.00;99.90
10419;DHT22;5256;48.728;9.140;2023-09-19T14:02:13;22.10;99.90
10419;DHT22;5256;48.728;9.140;2023-09-19T14:04:39;22.10;99.90
10419;DHT22;5256;48.728;9.140;2023-09-19T14:07:05;22.20;99.90
10419;DHT22;5256;48.728;9.140;2023-09-19T14:09:32;22.30;99.90
10419;DHT22;5256;48.728;9.140;2023-09-19T14:11:59;22.40;99.90
10419;DHT22;5256;48.728;9.140;2023-09-19T14:14:25;22.20;99.90
10419;DHT22;5256;48.728;9.140;2023-09-19T14:16:50;22.10;99.90
10419;DHT22;5256;48.728;9.140;2023-09-19T14:19:17;22.00;99.90
10419;DHT22;5256;48.728;9.140;2023-09-19T14:21:43;21.90;99.90
10419;DHT22;5256;48.728;9.140;2023-09-19T14:24:09;21.70;99.90
10419;DHT22;5256;48.728;9.140;2023-09-19T14:26:35;21.70;99.90
10419;DHT22;5256;48.728;9.140;2023-09-19T14:29:01;21.80;99.90
10419;DHT22;5256;48.728;9.140;2023-09-19T14:31:27;21.90;99.90
10419;DHT22;5256;48.728;9.140;2023-09-19T14:33:54;21.90;99.90
10419;DHT22;5256;48.728;9.140;2023-09-19T14:36:21;21.80;99.90
10419;DHT22;5256;48.728;9.140;2023-09-19T14:38:47;22.00;99.90
10419;DHT22;5256;48.728;9.140;2023-09-19T14:41:13;22.20;99.90
10419;DHT22;5256;48.728;9.140;2023-09-19T14:43:38;22.40;99.90
10419;DHT22;5256;48.728;9.140;2023-09-19T14:46:07;22.40;99.90
10419;DHT22;5256;48.728;9.140;2023-09-19T14:48:33;22.60;99.90
10419;DHT22;5256;48.728;9.140;2023-09-19T14:51:06;23.00;99.90
10419;DHT22;5256;48.728;9.140;2023-09-19T14:53:37;23.30;99.90
10419;DHT22;5256;48.728;9.140;2023-09-19T14:56:04;23.70;99.90
10419;DHT22;5256;48.728;9.140;2023-09-19T14:58:31;24.00;99.90
10419;DHT22;5256;48.728;9.140;2023-09-19T15:01:07;24.00;99.90
10419;DHT22;5256;48.728;9.140;2023-09-19T15:03:34;24.30;99.90
10419;DHT22;5256;48.728;9.140;2023-09-19T15:06:02;24.60;99.90
10419;DHT22;5256;48.728;9.140;2023-09-19T15:08:33;24.80;99.80
10419;DHT22;5256;48.728;9.140;2023-09-19T15:11:01;24.30;99.60
10419;DHT22;5256;48.728;9.140;2023-09-19T15:13:32;23.90;99.70
10419;DHT22;5256;48.728;9.140;2023-09-19T15:16:00;23.90;99.90
10419;DHT22;5256;48.728;9.140;2023-09-19T15:18:27;23.80;99.50
10419;DHT22;5256;48.728;9.140;2023-09-19T15:20:54;23.90;99.70
10419;DHT22;5256;48.728;9.140;2023-09-19T15:23:20;23.90;99.90
10419;DHT22;5256;48.728;9.140;2023-09-19T15:25:49;23.70;99.90
10419;DHT22;5256;48.728;9.140;2023-09-19T15:28:15;23.70;99.90
10419;DHT22;5256;48.728;9.140;2023-09-19T15:30:40;23.70;99.90
10419;DHT22;5256;48.728;9.140;2023-09-19T15:33:06;23.80;99.90
10419;DHT22;5256;48.728;9.140;2023-09-19T15:35:32;23.70;99.70
10419;DHT22;5256;48.728;9.140;2023-09-19T15:37:57;23.60;99.90
10419;DHT22;5256;48.728;9.140;2023-09-19T15:40:26;23.60;99.90
10419;DHT22;5256;48.728;9.140;2023-09-19T15:42:54;23.50;99.90
10419;DHT22;5256;48.728;9.140;2023-09-19T15:45:19;23.30;99.90
10419;DHT22;5256;48.728;9.140;2023-09-19T15:47:45;23.00;99.90
10419;DHT22;5256;48.728;9.140;2023-09-19T15:50:11;22.80;99.90
10419;DHT22;5256;48.728;9.140;2023-09-19T15:52:39;22.60;99.90
10419;DHT22;5256;48.728;9.140;2023-09-19T15:55:06;22.30;99.90
10419;DHT22;5256;48.728;9.140;2023-09-19T15:57:38;22.10;99.90
10419;DHT22;5256;48.728;9.140;2023-09-19T16:00:05;22.00;99.90
10419;DHT22;5256;48.728;9.140;2023-09-19T16:02:36;21.80;99.90
10419;DHT22;5256;48.728;9.140;2023-09-19T16:05:01;21.60;99.90
10419;DHT22;5256;48.728;9.140;2023-09-19T16:07:32;21.50;99.90
10419;DHT22;5256;48.728;9.140;2023-09-19T16:09:59;21.40;99.90
10419;DHT22;5256;48.728;9.140;2023-09-19T16:12:25;21.20;99.90
10419;DHT22;5256;48.728;9.140;2023-09-19T16:14:51;21.20;99.90
10419;DHT22;5256;48.728;9.140;2023-09-19T16:17:17;21.10;99.90
10419;DHT22;5256;48.728;9.140;2023-09-19T16:19:43;21.10;99.90
10419;DHT22;5256;48.728;9.140;2023-09-19T16:22:09;21.00;99.90
10419;DHT22;5256;48.728;9.140;2023-09-19T16:24:35;20.90;99.90
10419;DHT22;5256;48.728;9.140;2023-09-19T16:27:00;20.90;99.90
10419;DHT22;5256;48.728;9.140;2023-09-19T16:29:26;20.90;99.90
10419;DHT22;5256;48.728;9.140;2023-09-19T16:31:52;20.90;99.90
10419;DHT22;5256;48.728;9.140;2023-09-19T16:34:18;20.80;99.90
10419;DHT22;5256;48.728;9.140;2023-09-19T16:36:43;20.70;99.90
10419;DHT22;5256;48.728;9.140;2023-09-19T16:39:09;20.60;99.90
10419;DHT22;5256;48.728;9.140;2023-09-19T16:41:36;20.60;99.90
10419;DHT22;5256;48.728;9.140;2023-09-19T16:44:02;20.50;99.90
10419;DHT22;5256;48.728;9.140;2023-09-19T16:46:29;20.40;99.90
10419;DHT22;5256;48.728;9.140;2023-09-19T16:48:55;20.40;99.90
10419;DHT22;5256;48.728;9.140;2023-09-19T16:51:20;20.30;99.90